Weather History for Mammoth, CA

Change the Weather History Date:

Saturday, December 7, 2013

  Actual Average Record
Temperature  
Mean Temperature 16 °F -  
Max Temperature 26 °F 40 °F 60 °F (1997)
Min Temperature 5 °F 24 °F 5 °F (2013)
Degree Days  
Heating Degree Days 50    
Moisture  
Dew Point 3 °F    
Average Humidity 54    
Maximum Humidity 93    
Minimum Humidity 22    
Precipitation  
Precipitation 0.01 in - - ()
Sea Level Pressure  
Sea Level Pressure 29.71 in    
Wind  
Wind Speed 13 mph (WNW)    
Max Wind Speed 36 mph    
Max Gust Speed 63 mph    
Visibility 8 miles    
Events Snow    
Averages and records for this station are not official NWS values.
T = Trace of Precipitation, MM = Missing Value Source: NWS Daily Summary

Daily Weather History Graph

Daily Weather History Graph

Search for Another Location

Airport:

Trip Planner

Search our weather history database for the weather conditions in past years. The results will help you decide how hot, cold, wet, or windy it might be!

Date:

Astronomy

Dec. 07, 2013 Rise Set
Actual Time 6:57 AM PST 4:36 PM PST
Civil Twilight 6:28 AM PST 5:05 PM PST
Nautical Twilight 5:55 AM PST 5:38 PM PST
Astronomical Twilight 5:23 AM PST 6:10 PM PST
Moon 10:49 AM PST (12/7) 10:19 PM PST (12/7)
Length of Visible Light 10h 37m
Length of Day
9h 39m
Waxing Crescent, 30% of the Moon is Illuminated
Dec 7
Waxing Crescent
Dec 9
First Quarter
Dec 17
Full
Dec 25
Last Quarter
Jan 1
New

Hourly Weather History & Observations

Time (PST) Temp. Windchill Dew Point Humidity Pressure Visibility Wind Dir Wind Speed Gust Speed Precip Events Conditions
12:15 AM 19.4 °F 9.5 °F 12.2 °F 74% 29.74 in 10.0 mi East 8.1 mph - N/A   Overcast
12:35 AM 19.4 °F 11.5 °F 12.2 °F 74% 29.73 in 10.0 mi WNW 5.8 mph - N/A   Overcast
12:55 AM 17.6 °F 10.7 °F 10.4 °F 73% 29.73 in 10.0 mi ESE 4.6 mph - N/A   Overcast
1:15 AM 19.4 °F 9.5 °F 12.2 °F 74% 29.70 in 10.0 mi ESE 8.1 mph - N/A   Overcast
1:35 AM 17.6 °F 4.3 °F 12.2 °F 79% 29.67 in 10.0 mi East 12.7 mph - N/A   Overcast
1:55 AM 17.6 °F 9.3 °F 14.0 °F 86% 29.66 in 2.5 mi NNE 5.8 mph - N/A Snow Light Snow
2:15 AM 17.6 °F 8.2 °F 14.0 °F 86% 29.65 in 1.0 mi ENE 6.9 mph - N/A Snow Snow
2:35 AM 17.6 °F - 14.0 °F 86% 29.64 in 1.2 mi Calm Calm - N/A Snow Light Snow
2:55 AM 17.6 °F 8.2 °F 15.8 °F 93% 29.61 in 0.5 mi East 6.9 mph - N/A Snow Snow
3:15 AM 17.6 °F - 15.8 °F 93% 29.62 in 0.8 mi Calm Calm - N/A Snow Snow
3:35 AM 19.4 °F 14.3 °F 17.6 °F 93% 29.60 in 1.0 mi West 3.5 mph 21.9 mph N/A Snow Snow
3:55 AM 17.6 °F 4.3 °F 15.8 °F 93% 29.60 in 2.5 mi SSW 12.7 mph 28.8 mph N/A Snow Light Snow
4:15 AM 21.2 °F 6.4 °F 15.8 °F 80% 29.55 in 3.0 mi East 18.4 mph 24.2 mph N/A Snow Light Snow
4:35 AM 19.4 °F 11.5 °F 15.8 °F 86% 29.56 in 4.0 mi South 5.8 mph 27.6 mph N/A Snow Light Snow
4:55 AM 23.0 °F 17.0 °F 17.6 °F 80% 29.56 in 2.5 mi SSE 4.6 mph 24.2 mph N/A Snow Light Snow
5:15 AM 24.8 °F 17.9 °F 17.6 °F 74% 29.57 in 4.0 mi SSE 5.8 mph 29.9 mph N/A Snow Light Snow
5:35 AM 24.8 °F 7.1 °F 15.8 °F 69% 29.59 in 1.2 mi West 33.4 mph 43.7 mph N/A Snow Light Snow
5:55 AM 24.8 °F 8.4 °F 15.8 °F 69% 29.58 in 1.8 mi West 27.6 mph 63.3 mph N/A Snow Light Snow
6:15 AM 24.8 °F 10.3 °F 14.0 °F 64% 29.60 in 1.5 mi WNW 20.7 mph 43.7 mph N/A Snow Light Snow
6:35 AM 23.0 °F 6.6 °F 12.2 °F 63% 29.63 in 3.0 mi West 25.3 mph 36.8 mph N/A Snow Light Snow
6:55 AM 23.0 °F 4.9 °F 10.4 °F 59% 29.63 in 1.0 mi West 32.2 mph 54.1 mph N/A Snow Light Snow
7:15 AM 21.2 °F 1.7 °F 6.8 °F 54% 29.64 in 0.8 mi West 35.7 mph 63.3 mph 0.01 in Snow Light Snow
7:35 AM 21.2 °F 2.7 °F 6.8 °F 54% 29.64 in 1.0 mi West 31.1 mph 57.5 mph 0.01 in Snow Light Snow
7:55 AM 21.2 °F 3.3 °F -2.2 °F 36% 29.64 in 5.0 mi West 28.8 mph 43.7 mph 0.01 in   Haze
8:15 AM 23.0 °F 6.3 °F -5.8 °F 28% 29.64 in 2.5 mi West 26.5 mph 49.5 mph N/A Snow Light Snow
8:35 AM 23.0 °F 6.9 °F -5.8 °F 28% 29.65 in 4.0 mi WNW 24.2 mph 49.5 mph N/A   Haze
8:55 AM 23.0 °F 6.0 °F -5.8 °F 28% 29.66 in 10.0 mi West 27.6 mph 36.8 mph N/A   Clear
9:15 AM 24.8 °F 9.3 °F -4.0 °F 28% 29.67 in 10.0 mi West 24.2 mph 35.7 mph N/A   Clear
9:35 AM 23.0 °F 7.2 °F -5.8 °F 28% 29.67 in 10.0 mi West 23.0 mph 46.0 mph N/A   Clear
9:55 AM 23.0 °F 5.7 °F -2.2 °F 33% 29.67 in 10.0 mi WNW 28.8 mph 43.7 mph N/A   Clear
10:15 AM 23.0 °F 6.9 °F -2.2 °F 33% 29.66 in 10.0 mi West 24.2 mph 40.3 mph N/A   Clear
10:35 AM 24.8 °F 7.9 °F -5.8 °F 26% 29.64 in 10.0 mi SW 29.9 mph 44.9 mph N/A   Clear
10:55 AM 26.6 °F 15.2 °F -7.6 °F 22% 29.65 in 10.0 mi West 13.8 mph 59.8 mph N/A   Clear
11:15 AM 26.6 °F 11.4 °F -5.8 °F 24% 29.66 in 10.0 mi West 25.3 mph 35.7 mph N/A   Clear
11:55 AM 24.8 °F 13.4 °F -2.2 °F 31% 29.65 in 10.0 mi NW 12.7 mph 27.6 mph N/A   Clear
12:15 PM 26.6 °F 14.3 °F -4.0 °F 26% 29.65 in 10.0 mi NW 16.1 mph 23.0 mph N/A   Clear
12:35 PM 26.6 °F 13.4 °F -2.2 °F 29% 29.65 in 10.0 mi NNW 18.4 mph 25.3 mph N/A   Clear
12:55 PM 26.6 °F 12.7 °F -5.8 °F 24% 29.65 in 10.0 mi NW 20.7 mph 28.8 mph N/A   Clear
1:15 PM 24.8 °F 10.0 °F -4.0 °F 28% 29.66 in 10.0 mi NW 21.9 mph 38.0 mph N/A   Clear
1:35 PM 24.8 °F 9.3 °F -4.0 °F 28% 29.65 in 10.0 mi NNW 24.2 mph 32.2 mph N/A   Clear
1:55 PM 24.8 °F 11.5 °F -4.0 °F 28% 29.67 in 10.0 mi NW 17.3 mph 31.1 mph N/A   Clear
2:15 PM 24.8 °F 10.3 °F -4.0 °F 28% 29.67 in 10.0 mi NW 20.7 mph 28.8 mph N/A   Clear
2:35 PM 23.0 °F 7.6 °F -4.0 °F 31% 29.68 in 10.0 mi NW 21.9 mph 31.1 mph N/A   Clear
3:15 PM 21.2 °F 6.4 °F -4.0 °F 33% 29.70 in 10.0 mi NNW 18.4 mph 33.4 mph N/A   Clear
3:35 PM 21.2 °F 6.0 °F -2.2 °F 36% 29.71 in 10.0 mi NW 19.6 mph 28.8 mph N/A   Clear
3:55 PM 19.4 °F 3.6 °F -4.0 °F 36% 29.72 in 10.0 mi WNW 19.6 mph 26.5 mph N/A   Clear
4:15 PM 17.6 °F 0.5 °F -2.2 °F 42% 29.73 in 10.0 mi WNW 21.9 mph 32.2 mph N/A   Clear
4:35 PM 17.6 °F 1.7 °F -2.2 °F 42% 29.75 in 10.0 mi NW 18.4 mph 28.8 mph N/A   Clear
4:55 PM 17.6 °F 2.2 °F -2.2 °F 42% 29.75 in 10.0 mi NW 17.3 mph 26.5 mph N/A   Clear
5:15 PM 17.6 °F 1.3 °F -2.2 °F 42% 29.76 in 10.0 mi NW 19.6 mph 26.5 mph N/A   Clear
5:35 PM 15.8 °F -1.5 °F -0.4 °F 49% 29.77 in 10.0 mi NW 20.7 mph 27.6 mph N/A   Clear
6:15 PM 15.8 °F -0.6 °F -0.4 °F 49% 29.79 in 10.0 mi WNW 18.4 mph 29.9 mph N/A   Clear
6:35 PM 15.8 °F -1.5 °F -0.4 °F 49% 29.80 in 10.0 mi WNW 20.7 mph 28.8 mph N/A   Clear
6:55 PM 15.8 °F 0.9 °F -0.4 °F 49% 29.81 in 10.0 mi NW 15.0 mph 25.3 mph N/A   Clear
7:15 PM 15.8 °F 1.4 °F -0.4 °F 49% 29.81 in 10.0 mi NW 13.8 mph 21.9 mph N/A   Clear
7:35 PM 14.0 °F 2.9 °F -0.4 °F 53% 29.82 in 10.0 mi NNW 8.1 mph 20.7 mph N/A   Clear
7:55 PM 14.0 °F 8.2 °F -0.4 °F 53% 29.83 in 10.0 mi NE 3.5 mph - N/A   Clear
8:15 PM 12.2 °F 1.7 °F -0.4 °F 57% 29.84 in 10.0 mi NW 6.9 mph - N/A   Clear
8:35 PM 12.2 °F 2.9 °F -0.4 °F 57% 29.84 in 10.0 mi WNW 5.8 mph - N/A   Clear
8:55 PM 10.4 °F 2.2 °F -0.4 °F 62% 29.84 in 10.0 mi NW 4.6 mph - N/A   Clear
9:15 PM 8.6 °F -3.7 °F -0.4 °F 67% 29.85 in 10.0 mi NNW 8.1 mph - N/A   Clear
9:35 PM 6.8 °F -0.1 °F -2.2 °F 67% 29.86 in 10.0 mi South 3.5 mph - N/A   Clear
9:55 PM 5.0 °F -2.1 °F -2.2 °F 72% 29.87 in 10.0 mi SSE 3.5 mph - N/A   Clear
10:15 PM 6.8 °F -2.0 °F -2.2 °F 67% 29.89 in 10.0 mi SSE 4.6 mph - N/A   Clear
10:35 PM 5.0 °F - -2.2 °F 72% 29.89 in 10.0 mi Calm Calm - N/A   Clear
10:55 PM 5.0 °F - -4.0 °F 66% 29.90 in 10.0 mi Calm Calm - N/A   Clear
11:35 PM 6.8 °F - -0.4 °F 72% 29.91 in 10.0 mi Calm Calm - N/A   Clear
11:55 PM 5.0 °F - -2.2 °F 72% 29.91 in 10.0 mi Calm Calm - N/A   Clear